sensor_id;sensor_type;location;lat;lon;timestamp;temperature;humidity
18365;DHT22;9309;52.126;11.616;2023-03-17T00:01:18;4.10;66.80
18365;DHT22;9309;52.126;11.616;2023-03-17T00:03:46;4.10;67.00
18365;DHT22;9309;52.126;11.616;2023-03-17T00:06:16;4.10;66.70
18365;DHT22;9309;52.126;11.616;2023-03-17T00:08:44;4.10;67.10
18365;DHT22;9309;52.126;11.616;2023-03-17T00:11:11;4.10;67.30
18365;DHT22;9309;52.126;11.616;2023-03-17T00:13:40;4.00;67.30
18365;DHT22;9309;52.126;11.616;2023-03-17T00:16:12;4.00;67.10
18365;DHT22;9309;52.126;11.616;2023-03-17T00:18:41;4.00;67.10
18365;DHT22;9309;52.126;11.616;2023-03-17T00:21:10;4.00;67.30
18365;DHT22;9309;52.126;11.616;2023-03-17T00:23:39;4.00;67.20
18365;DHT22;9309;52.126;11.616;2023-03-17T00:26:06;4.00;67.40
18365;DHT22;9309;52.126;11.616;2023-03-17T00:28:33;4.00;67.40
18365;DHT22;9309;52.126;11.616;2023-03-17T00:31:10;4.00;67.50
18365;DHT22;9309;52.126;11.616;2023-03-17T00:33:38;4.00;67.00
18365;DHT22;9309;52.126;11.616;2023-03-17T00:36:10;4.00;67.10
18365;DHT22;9309;52.126;11.616;2023-03-17T00:38:38;4.00;67.30
18365;DHT22;9309;52.126;11.616;2023-03-17T00:41:06;4.00;67.00
18365;DHT22;9309;52.126;11.616;2023-03-17T00:43:33;4.00;67.10
18365;DHT22;9309;52.126;11.616;2023-03-17T00:46:04;4.00;67.20
18365;DHT22;9309;52.126;11.616;2023-03-17T00:48:35;4.00;67.20
18365;DHT22;9309;52.126;11.616;2023-03-17T00:51:02;4.00;67.20
18365;DHT22;9309;52.126;11.616;2023-03-17T00:53:29;4.00;67.00
18365;DHT22;9309;52.126;11.616;2023-03-17T00:55:58;4.00;67.10
18365;DHT22;9309;52.126;11.616;2023-03-17T00:58:26;4.00;67.20
18365;DHT22;9309;52.126;11.616;2023-03-17T01:00:54;4.00;67.30
18365;DHT22;9309;52.126;11.616;2023-03-17T01:03:23;4.00;67.40
18365;DHT22;9309;52.126;11.616;2023-03-17T01:05:52;4.00;67.00
18365;DHT22;9309;52.126;11.616;2023-03-17T01:08:21;4.00;67.10
18365;DHT22;9309;52.126;11.616;2023-03-17T01:10:50;4.00;67.20
18365;DHT22;9309;52.126;11.616;2023-03-17T01:13:18;4.00;67.20
18365;DHT22;9309;52.126;11.616;2023-03-17T01:15:47;4.00;67.00
18365;DHT22;9309;52.126;11.616;2023-03-17T01:18:16;4.00;66.80
18365;DHT22;9309;52.126;11.616;2023-03-17T01:20:44;4.00;66.90
18365;DHT22;9309;52.126;11.616;2023-03-17T01:23:12;4.00;66.80
18365;DHT22;9309;52.126;11.616;2023-03-17T01:25:40;4.00;66.70
18365;DHT22;9309;52.126;11.616;2023-03-17T01:28:09;4.00;66.90
18365;DHT22;9309;52.126;11.616;2023-03-17T01:30:39;4.00;67.20
18365;DHT22;9309;52.126;11.616;2023-03-17T01:33:09;3.90;67.00
18365;DHT22;9309;52.126;11.616;2023-03-17T01:35:38;3.90;67.40
18365;DHT22;9309;52.126;11.616;2023-03-17T01:38:07;3.90;67.20
18365;DHT22;9309;52.126;11.616;2023-03-17T01:40:35;3.90;67.20
18365;DHT22;9309;52.126;11.616;2023-03-17T01:43:16;3.90;66.80
18365;DHT22;9309;52.126;11.616;2023-03-17T01:46:13;4.00;67.20
18365;DHT22;9309;52.126;11.616;2023-03-17T01:48:44;3.90;67.20
18365;DHT22;9309;52.126;11.616;2023-03-17T01:51:16;3.80;67.60
18365;DHT22;9309;52.126;11.616;2023-03-17T01:53:47;3.90;67.60
18365;DHT22;9309;52.126;11.616;2023-03-17T01:56:15;3.90;67.40
18365;DHT22;9309;52.126;11.616;2023-03-17T01:58:44;3.80;67.50
18365;DHT22;9309;52.126;11.616;2023-03-17T02:01:12;3.90;67.20
18365;DHT22;9309;52.126;11.616;2023-03-17T02:03:39;3.90;67.10
18365;DHT22;9309;52.126;11.616;2023-03-17T02:06:06;3.80;67.20
18365;DHT22;9309;52.126;11.616;2023-03-17T02:08:33;3.90;67.10
18365;DHT22;9309;52.126;11.616;2023-03-17T02:11:02;3.90;67.30
18365;DHT22;9309;52.126;11.616;2023-03-17T02:13:30;3.80;67.40
18365;DHT22;9309;52.126;11.616;2023-03-17T02:15:57;3.80;67.40
18365;DHT22;9309;52.126;11.616;2023-03-17T02:18:24;3.80;67.30
18365;DHT22;9309;52.126;11.616;2023-03-17T02:21:27;3.80;67.30
18365;DHT22;9309;52.126;11.616;2023-03-17T02:23:55;3.80;67.00
18365;DHT22;9309;52.126;11.616;2023-03-17T02:26:23;3.80;66.80
18365;DHT22;9309;52.126;11.616;2023-03-17T02:28:50;3.80;67.10
18365;DHT22;9309;52.126;11.616;2023-03-17T02:31:18;3.80;66.60
18365;DHT22;9309;52.126;11.616;2023-03-17T02:33:45;3.90;66.40
18365;DHT22;9309;52.126;11.616;2023-03-17T02:36:11;3.90;66.30
18365;DHT22;9309;52.126;11.616;2023-03-17T02:38:40;3.90;66.60
18365;DHT22;9309;52.126;11.616;2023-03-17T02:41:07;3.90;66.40
18365;DHT22;9309;52.126;11.616;2023-03-17T02:43:34;3.80;66.10
18365;DHT22;9309;52.126;11.616;2023-03-17T02:46:01;3.90;66.30
18365;DHT22;9309;52.126;11.616;2023-03-17T02:48:28;3.90;66.20
18365;DHT22;9309;52.126;11.616;2023-03-17T02:50:55;3.90;65.70
18365;DHT22;9309;52.126;11.616;2023-03-17T02:53:21;3.90;65.80
18365;DHT22;9309;52.126;11.616;2023-03-17T02:55:49;3.90;65.60
18365;DHT22;9309;52.126;11.616;2023-03-17T02:58:16;4.00;65.30
18365;DHT22;9309;52.126;11.616;2023-03-17T03:00:42;4.00;65.50
18365;DHT22;9309;52.126;11.616;2023-03-17T03:03:09;3.90;65.20
18365;DHT22;9309;52.126;11.616;2023-03-17T03:05:35;3.90;65.70
18365;DHT22;9309;52.126;11.616;2023-03-17T03:08:02;3.90;65.60
18365;DHT22;9309;52.126;11.616;2023-03-17T03:10:29;3.90;65.70
18365;DHT22;9309;52.126;11.616;2023-03-17T03:12:58;3.90;65.30
18365;DHT22;9309;52.126;11.616;2023-03-17T03:15:24;3.90;65.60
18365;DHT22;9309;52.126;11.616;2023-03-17T03:17:51;3.90;65.60
18365;DHT22;9309;52.126;11.616;2023-03-17T03:20:18;3.90;65.20
18365;DHT22;9309;52.126;11.616;2023-03-17T03:22:45;4.00;64.90
18365;DHT22;9309;52.126;11.616;2023-03-17T03:25:11;3.90;64.90
18365;DHT22;9309;52.126;11.616;2023-03-17T03:27:38;3.90;65.50
18365;DHT22;9309;52.126;11.616;2023-03-17T03:30:08;3.90;64.60
18365;DHT22;9309;52.126;11.616;2023-03-17T03:32:35;3.90;64.60
18365;DHT22;9309;52.126;11.616;2023-03-17T03:35:02;4.00;64.60
18365;DHT22;9309;52.126;11.616;2023-03-17T03:37:29;3.90;64.50
18365;DHT22;9309;52.126;11.616;2023-03-17T03:39:55;4.00;65.00
18365;DHT22;9309;52.126;11.616;2023-03-17T03:42:22;3.90;64.90
18365;DHT22;9309;52.126;11.616;2023-03-17T03:44:49;3.90;65.10
18365;DHT22;9309;52.126;11.616;2023-03-17T03:47:17;3.90;65.30
18365;DHT22;9309;52.126;11.616;2023-03-17T03:49:43;3.80;65.10
18365;DHT22;9309;52.126;11.616;2023-03-17T03:52:10;3.80;65.10
18365;DHT22;9309;52.126;11.616;2023-03-17T03:54:37;3.80;65.30
18365;DHT22;9309;52.126;11.616;2023-03-17T03:57:04;3.80;65.10
18365;DHT22;9309;52.126;11.616;2023-03-17T03:59:30;3.80;64.70
18365;DHT22;9309;52.126;11.616;2023-03-17T04:01:57;3.80;65.00
18365;DHT22;9309;52.126;11.616;2023-03-17T04:04:25;3.80;64.90
18365;DHT22;9309;52.126;11.616;2023-03-17T04:06:52;3.80;64.80
18365;DHT22;9309;52.126;11.616;2023-03-17T04:09:18;3.80;65.10
18365;DHT22;9309;52.126;11.616;2023-03-17T04:11:45;3.70;65.20
18365;DHT22;9309;52.126;11.616;2023-03-17T04:14:12;3.70;65.10
18365;DHT22;9309;52.126;11.616;2023-03-17T04:16:38;3.80;65.00
18365;DHT22;9309;52.126;11.616;2023-03-17T04:19:05;3.80;64.80
18365;DHT22;9309;52.126;11.616;2023-03-17T04:21:34;3.80;64.80
18365;DHT22;9309;52.126;11.616;2023-03-17T04:24:01;3.80;65.10
18365;DHT22;9309;52.126;11.616;2023-03-17T04:26:29;3.80;64.80
18365;DHT22;9309;52.126;11.616;2023-03-17T04:28:56;3.80;64.80
18365;DHT22;9309;52.126;11.616;2023-03-17T04:31:23;3.80;64.80
18365;DHT22;9309;52.126;11.616;2023-03-17T04:33:50;3.70;64.80
18365;DHT22;9309;52.126;11.616;2023-03-17T04:36:18;3.70;65.00
18365;DHT22;9309;52.126;11.616;2023-03-17T04:38:46;3.70;64.90
18365;DHT22;9309;52.126;11.616;2023-03-17T04:41:13;3.70;65.20
18365;DHT22;9309;52.126;11.616;2023-03-17T04:43:40;3.70;65.10
18365;DHT22;9309;52.126;11.616;2023-03-17T04:46:07;3.70;65.10
18365;DHT22;9309;52.126;11.616;2023-03-17T04:48:34;3.60;65.20
18365;DHT22;9309;52.126;11.616;2023-03-17T04:51:01;3.60;65.20
18365;DHT22;9309;52.126;11.616;2023-03-17T04:53:28;3.60;65.10
18365;DHT22;9309;52.126;11.616;2023-03-17T04:55:56;3.70;65.10
18365;DHT22;9309;52.126;11.616;2023-03-17T04:58:22;3.70;64.70
18365;DHT22;9309;52.126;11.616;2023-03-17T05:00:50;3.60;64.70
18365;DHT22;9309;52.126;11.616;2023-03-17T05:03:17;3.60;64.90
18365;DHT22;9309;52.126;11.616;2023-03-17T05:05:44;3.60;64.80
18365;DHT22;9309;52.126;11.616;2023-03-17T05:08:11;3.60;64.90
18365;DHT22;9309;52.126;11.616;2023-03-17T05:10:38;3.50;64.70
18365;DHT22;9309;52.126;11.616;2023-03-17T05:13:06;3.60;64.90
18365;DHT22;9309;52.126;11.616;2023-03-17T05:15:33;3.50;64.80
18365;DHT22;9309;52.126;11.616;2023-03-17T05:17:59;3.60;65.20
18365;DHT22;9309;52.126;11.616;2023-03-17T05:20:26;3.60;64.90
18365;DHT22;9309;52.126;11.616;2023-03-17T05:22:52;3.50;64.90
18365;DHT22;9309;52.126;11.616;2023-03-17T05:25:19;3.50;64.90
18365;DHT22;9309;52.126;11.616;2023-03-17T05:27:46;3.50;65.00
18365;DHT22;9309;52.126;11.616;2023-03-17T05:30:15;3.50;64.70
18365;DHT22;9309;52.126;11.616;2023-03-17T05:32:42;3.40;64.70
18365;DHT22;9309;52.126;11.616;2023-03-17T05:35:10;3.50;64.60
18365;DHT22;9309;52.126;11.616;2023-03-17T05:37:36;3.50;64.60
18365;DHT22;9309;52.126;11.616;2023-03-17T05:40:03;3.50;64.40
18365;DHT22;9309;52.126;11.616;2023-03-17T05:42:30;3.50;64.10
18365;DHT22;9309;52.126;11.616;2023-03-17T05:44:57;3.40;64.30
18365;DHT22;9309;52.126;11.616;2023-03-17T05:47:25;3.40;64.20
18365;DHT22;9309;52.126;11.616;2023-03-17T05:49:52;3.50;64.50
18365;DHT22;9309;52.126;11.616;2023-03-17T05:52:18;3.50;64.30
18365;DHT22;9309;52.126;11.616;2023-03-17T05:54:45;3.50;64.10
18365;DHT22;9309;52.126;11.616;2023-03-17T05:57:13;3.50;64.10
18365;DHT22;9309;52.126;11.616;2023-03-17T05:59:40;3.50;64.00
18365;DHT22;9309;52.126;11.616;2023-03-17T06:02:08;3.50;63.70
18365;DHT22;9309;52.126;11.616;2023-03-17T06:04:37;3.50;64.00
18365;DHT22;9309;52.126;11.616;2023-03-17T06:07:03;3.50;63.40
18365;DHT22;9309;52.126;11.616;2023-03-17T06:09:30;3.50;63.40
18365;DHT22;9309;52.126;11.616;2023-03-17T06:11:57;3.60;63.40
18365;DHT22;9309;52.126;11.616;2023-03-17T06:14:24;3.60;63.20
18365;DHT22;9309;52.126;11.616;2023-03-17T06:16:51;3.60;63.00
18365;DHT22;9309;52.126;11.616;2023-03-17T06:19:17;3.60;63.00
18365;DHT22;9309;52.126;11.616;2023-03-17T06:21:45;3.60;63.00
18365;DHT22;9309;52.126;11.616;2023-03-17T06:24:12;3.60;63.20
18365;DHT22;9309;52.126;11.616;2023-03-17T06:26:39;3.60;63.00
18365;DHT22;9309;52.126;11.616;2023-03-17T06:29:07;3.70;62.60
18365;DHT22;9309;52.126;11.616;2023-03-17T06:31:34;3.80;62.70
18365;DHT22;9309;52.126;11.616;2023-03-17T06:34:01;3.70;62.40
18365;DHT22;9309;52.126;11.616;2023-03-17T06:36:28;3.70;62.30
18365;DHT22;9309;52.126;11.616;2023-03-17T06:38:56;3.80;62.80
18365;DHT22;9309;52.126;11.616;2023-03-17T06:41:24;3.80;62.30
18365;DHT22;9309;52.126;11.616;2023-03-17T06:43:51;3.80;62.20
18365;DHT22;9309;52.126;11.616;2023-03-17T06:46:18;3.90;61.70
18365;DHT22;9309;52.126;11.616;2023-03-17T06:48:45;3.90;61.80
18365;DHT22;9309;52.126;11.616;2023-03-17T06:51:12;4.00;61.20
18365;DHT22;9309;52.126;11.616;2023-03-17T06:53:38;4.00;61.00
18365;DHT22;9309;52.126;11.616;2023-03-17T06:56:07;4.10;61.10
18365;DHT22;9309;52.126;11.616;2023-03-17T06:58:34;4.20;60.30
18365;DHT22;9309;52.126;11.616;2023-03-17T07:01:00;4.20;59.80
18365;DHT22;9309;52.126;11.616;2023-03-17T07:03:28;4.30;59.00
18365;DHT22;9309;52.126;11.616;2023-03-17T07:05:55;4.40;59.10
18365;DHT22;9309;52.126;11.616;2023-03-17T07:08:22;4.40;58.90
18365;DHT22;9309;52.126;11.616;2023-03-17T07:10:49;4.40;59.60
18365;DHT22;9309;52.126;11.616;2023-03-17T07:13:18;4.50;59.10
18365;DHT22;9309;52.126;11.616;2023-03-17T07:15:45;4.60;58.70
18365;DHT22;9309;52.126;11.616;2023-03-17T07:18:12;4.70;58.50
18365;DHT22;9309;52.126;11.616;2023-03-17T07:20:39;4.80;57.50
18365;DHT22;9309;52.126;11.616;2023-03-17T07:23:17;4.80;57.90
18365;DHT22;9309;52.126;11.616;2023-03-17T07:25:44;4.90;57.80
18365;DHT22;9309;52.126;11.616;2023-03-17T07:28:11;5.00;56.50
18365;DHT22;9309;52.126;11.616;2023-03-17T07:30:40;5.00;56.70
18365;DHT22;9309;52.126;11.616;2023-03-17T07:33:11;5.20;56.10
18365;DHT22;9309;52.126;11.616;2023-03-17T07:35:37;5.20;55.90
18365;DHT22;9309;52.126;11.616;2023-03-17T07:38:04;5.20;55.50
18365;DHT22;9309;52.126;11.616;2023-03-17T07:40:32;5.40;55.60
18365;DHT22;9309;52.126;11.616;2023-03-17T07:43:00;5.50;54.60
18365;DHT22;9309;52.126;11.616;2023-03-17T07:45:27;5.60;55.20
18365;DHT22;9309;52.126;11.616;2023-03-17T07:47:54;5.70;54.70
18365;DHT22;9309;52.126;11.616;2023-03-17T07:50:21;5.70;54.50
18365;DHT22;9309;52.126;11.616;2023-03-17T07:52:48;5.80;54.90
18365;DHT22;9309;52.126;11.616;2023-03-17T07:55:15;5.90;54.70
18365;DHT22;9309;52.126;11.616;2023-03-17T07:57:42;6.00;53.80
18365;DHT22;9309;52.126;11.616;2023-03-17T08:00:10;6.00;53.80
18365;DHT22;9309;52.126;11.616;2023-03-17T08:02:38;6.10;53.70
18365;DHT22;9309;52.126;11.616;2023-03-17T08:05:08;6.20;54.40
18365;DHT22;9309;52.126;11.616;2023-03-17T08:07:35;6.40;54.30
18365;DHT22;9309;52.126;11.616;2023-03-17T08:10:03;6.50;54.20
18365;DHT22;9309;52.126;11.616;2023-03-17T08:12:30;6.60;53.30
18365;DHT22;9309;52.126;11.616;2023-03-17T08:14:56;6.70;53.30
18365;DHT22;9309;52.126;11.616;2023-03-17T08:17:23;6.80;53.00
18365;DHT22;9309;52.126;11.616;2023-03-17T08:19:51;7.00;52.30
18365;DHT22;9309;52.126;11.616;2023-03-17T08:22:19;7.10;52.20
18365;DHT22;9309;52.126;11.616;2023-03-17T08:24:46;7.00;52.40
18365;DHT22;9309;52.126;11.616;2023-03-17T08:27:13;7.10;52.00
18365;DHT22;9309;52.126;11.616;2023-03-17T08:29:40;7.20;51.30
18365;DHT22;9309;52.126;11.616;2023-03-17T08:32:07;7.30;51.10
18365;DHT22;9309;52.126;11.616;2023-03-17T08:34:34;7.60;50.10
18365;DHT22;9309;52.126;11.616;2023-03-17T08:37:01;8.00;49.50
18365;DHT22;9309;52.126;11.616;2023-03-17T08:39:29;8.40;48.70
18365;DHT22;9309;52.126;11.616;2023-03-17T08:41:56;8.70;48.70
18365;DHT22;9309;52.126;11.616;2023-03-17T08:44:22;9.40;46.70
18365;DHT22;9309;52.126;11.616;2023-03-17T08:46:49;9.90;46.30
18365;DHT22;9309;52.126;11.616;2023-03-17T08:49:16;10.10;45.40
18365;DHT22;9309;52.126;11.616;2023-03-17T08:51:43;10.40;44.50
18365;DHT22;9309;52.126;11.616;2023-03-17T08:54:11;11.20;43.60
18365;DHT22;9309;52.126;11.616;2023-03-17T08:56:40;10.70;42.60
18365;DHT22;9309;52.126;11.616;2023-03-17T08:59:08;9.40;45.70
18365;DHT22;9309;52.126;11.616;2023-03-17T09:01:34;9.10;46.50
18365;DHT22;9309;52.126;11.616;2023-03-17T09:04:02;9.10;47.30
18365;DHT22;9309;52.126;11.616;2023-03-17T09:06:29;9.30;47.40
18365;DHT22;9309;52.126;11.616;2023-03-17T09:08:56;9.50;47.20
18365;DHT22;9309;52.126;11.616;2023-03-17T09:11:25;9.80;45.80
18365;DHT22;9309;52.126;11.616;2023-03-17T09:13:54;9.70;45.90
18365;DHT22;9309;52.126;11.616;2023-03-17T09:16:21;9.90;47.10
18365;DHT22;9309;52.126;11.616;2023-03-17T09:18:48;9.70;45.90
18365;DHT22;9309;52.126;11.616;2023-03-17T09:21:15;9.40;46.70
18365;DHT22;9309;52.126;11.616;2023-03-17T09:23:42;9.60;47.90
18365;DHT22;9309;52.126;11.616;2023-03-17T09:26:09;10.50;46.30
18365;DHT22;9309;52.126;11.616;2023-03-17T09:28:37;10.70;45.00
18365;DHT22;9309;52.126;11.616;2023-03-17T09:31:06;10.00;46.20
18365;DHT22;9309;52.126;11.616;2023-03-17T09:33:36;9.60;46.20
18365;DHT22;9309;52.126;11.616;2023-03-17T09:36:02;10.00;46.00
18365;DHT22;9309;52.126;11.616;2023-03-17T09:38:29;10.70;45.20
18365;DHT22;9309;52.126;11.616;2023-03-17T09:41:02;11.00;44.10
18365;DHT22;9309;52.126;11.616;2023-03-17T09:43:37;10.40;44.60
18365;DHT22;9309;52.126;11.616;2023-03-17T09:46:17;10.20;46.80
18365;DHT22;9309;52.126;11.616;2023-03-17T09:48:55;11.00;44.40
18365;DHT22;9309;52.126;11.616;2023-03-17T09:51:24;11.30;43.10
18365;DHT22;9309;52.126;11.616;2023-03-17T09:53:56;10.80;44.00
18365;DHT22;9309;52.126;11.616;2023-03-17T09:56:27;11.30;44.60
18365;DHT22;9309;52.126;11.616;2023-03-17T09:58:57;12.50;41.10
18365;DHT22;9309;52.126;11.616;2023-03-17T10:01:27;12.50;41.20
18365;DHT22;9309;52.126;11.616;2023-03-17T10:03:53;12.30;41.70
18365;DHT22;9309;52.126;11.616;2023-03-17T10:06:35;11.80;42.40
18365;DHT22;9309;52.126;11.616;2023-03-17T10:09:22;11.80;43.60
18365;DHT22;9309;52.126;11.616;2023-03-17T10:12:01;12.70;42.10
18365;DHT22;9309;52.126;11.616;2023-03-17T10:14:40;13.30;40.40
18365;DHT22;9309;52.126;11.616;2023-03-17T10:17:15;13.40;40.40
18365;DHT22;9309;52.126;11.616;2023-03-17T10:19:45;13.80;40.00
18365;DHT22;9309;52.126;11.616;2023-03-17T10:22:18;13.40;40.00
18365;DHT22;9309;52.126;11.616;2023-03-17T10:24:50;12.80;41.00
18365;DHT22;9309;52.126;11.616;2023-03-17T10:27:17;12.80;41.80
18365;DHT22;9309;52.126;11.616;2023-03-17T10:29:44;13.10;40.60
18365;DHT22;9309;52.126;11.616;2023-03-17T10:32:13;13.00;41.00
18365;DHT22;9309;52.126;11.616;2023-03-17T10:34:41;13.40;41.10
18365;DHT22;9309;52.126;11.616;2023-03-17T10:37:12;13.80;40.20
18365;DHT22;9309;52.126;11.616;2023-03-17T10:39:44;13.70;40.20
18365;DHT22;9309;52.126;11.616;2023-03-17T10:42:18;13.30;41.20
18365;DHT22;9309;52.126;11.616;2023-03-17T10:44:50;13.70;40.80
18365;DHT22;9309;52.126;11.616;2023-03-17T10:47:29;13.80;40.20
18365;DHT22;9309;52.126;11.616;2023-03-17T10:49:58;13.60;41.30
18365;DHT22;9309;52.126;11.616;2023-03-17T10:52:29;13.40;42.10
18365;DHT22;9309;52.126;11.616;2023-03-17T10:55:00;14.00;40.80
18365;DHT22;9309;52.126;11.616;2023-03-17T10:57:28;13.90;40.90
18365;DHT22;9309;52.126;11.616;2023-03-17T10:59:56;13.80;41.70
18365;DHT22;9309;52.126;11.616;2023-03-17T11:02:27;14.80;40.10
18365;DHT22;9309;52.126;11.616;2023-03-17T11:04:58;14.40;40.40
18365;DHT22;9309;52.126;11.616;2023-03-17T11:07:32;14.10;41.30
18365;DHT22;9309;52.126;11.616;2023-03-17T11:10:01;14.00;41.40
18365;DHT22;9309;52.126;11.616;2023-03-17T11:12:34;13.80;41.50
18365;DHT22;9309;52.126;11.616;2023-03-17T11:15:05;13.80;42.20
18365;DHT22;9309;52.126;11.616;2023-03-17T11:17:37;14.40;41.00
18365;DHT22;9309;52.126;11.616;2023-03-17T11:20:19;14.80;39.20
18365;DHT22;9309;52.126;11.616;2023-03-17T11:22:53;15.50;38.80
18365;DHT22;9309;52.126;11.616;2023-03-17T11:25:22;15.50;38.00
18365;DHT22;9309;52.126;11.616;2023-03-17T11:27:53;15.10;38.70
18365;DHT22;9309;52.126;11.616;2023-03-17T11:30:28;14.80;39.50
18365;DHT22;9309;52.126;11.616;2023-03-17T11:33:04;15.00;38.70
18365;DHT22;9309;52.126;11.616;2023-03-17T11:35:49;15.60;37.90
18365;DHT22;9309;52.126;11.616;2023-03-17T11:38:22;15.60;37.80
18365;DHT22;9309;52.126;11.616;2023-03-17T11:41:11;15.60;38.20
18365;DHT22;9309;52.126;11.616;2023-03-17T11:43:58;15.60;37.60
18365;DHT22;9309;52.126;11.616;2023-03-17T11:46:34;15.90;37.50
18365;DHT22;9309;52.126;11.616;2023-03-17T11:49:09;16.30;35.80
18365;DHT22;9309;52.126;11.616;2023-03-17T11:51:48;15.70;36.80
18365;DHT22;9309;52.126;11.616;2023-03-17T11:54:21;15.70;36.50
18365;DHT22;9309;52.126;11.616;2023-03-17T11:56:51;16.70;36.00
18365;DHT22;9309;52.126;11.616;2023-03-17T11:59:26;18.00;33.90
18365;DHT22;9309;52.126;11.616;2023-03-17T12:02:01;17.60;34.30
18365;DHT22;9309;52.126;11.616;2023-03-17T12:04:35;18.20;35.00
18365;DHT22;9309;52.126;11.616;2023-03-17T12:07:15;19.60;31.50
18365;DHT22;9309;52.126;11.616;2023-03-17T12:09:47;19.90;31.40
18365;DHT22;9309;52.126;11.616;2023-03-17T12:12:25;19.60;31.80
18365;DHT22;9309;52.126;11.616;2023-03-17T12:14:55;19.60;32.10
18365;DHT22;9309;52.126;11.616;2023-03-17T12:17:26;19.30;32.00
18365;DHT22;9309;52.126;11.616;2023-03-17T12:20:02;18.70;32.10
18365;DHT22;9309;52.126;11.616;2023-03-17T12:22:35;17.80;34.20
18365;DHT22;9309;52.126;11.616;2023-03-17T12:25:09;18.20;34.20
18365;DHT22;9309;52.126;11.616;2023-03-17T12:27:43;18.30;33.80
18365;DHT22;9309;52.126;11.616;2023-03-17T12:30:20;18.60;33.20
18365;DHT22;9309;52.126;11.616;2023-03-17T12:32:52;18.10;33.70
18365;DHT22;9309;52.126;11.616;2023-03-17T12:35:25;16.60;35.70
18365;DHT22;9309;52.126;11.616;2023-03-17T12:37:54;16.40;36.30
18365;DHT22;9309;52.126;11.616;2023-03-17T12:40:23;16.30;37.70
18365;DHT22;9309;52.126;11.616;2023-03-17T12:42:51;16.60;36.90
18365;DHT22;9309;52.126;11.616;2023-03-17T12:45:42;16.90;36.00
18365;DHT22;9309;52.126;11.616;2023-03-17T12:48:27;16.30;37.20
18365;DHT22;9309;52.126;11.616;2023-03-17T12:54:17;15.80;38.60
18365;DHT22;9309;52.126;11.616;2023-03-17T12:56:47;16.00;38.30
18365;DHT22;9309;52.126;11.616;2023-03-17T12:59:16;16.20;38.20
18365;DHT22;9309;52.126;11.616;2023-03-17T13:01:45;16.00;38.00
18365;DHT22;9309;52.126;11.616;2023-03-17T13:04:17;15.70;38.60
18365;DHT22;9309;52.126;11.616;2023-03-17T13:06:57;15.70;38.60
18365;DHT22;9309;52.126;11.616;2023-03-17T13:12:54;15.40;39.40
18365;DHT22;9309;52.126;11.616;2023-03-17T13:15:27;15.40;39.40
18365;DHT22;9309;52.126;11.616;2023-03-17T13:18:22;15.50;39.30
18365;DHT22;9309;52.126;11.616;2023-03-17T13:20:51;15.90;39.90
18365;DHT22;9309;52.126;11.616;2023-03-17T13:23:39;16.00;38.90
18365;DHT22;9309;52.126;11.616;2023-03-17T13:26:06;16.10;39.60
18365;DHT22;9309;52.126;11.616;2023-03-17T13:28:40;15.80;39.80
18365;DHT22;9309;52.126;11.616;2023-03-17T13:31:12;15.60;40.60
18365;DHT22;9309;52.126;11.616;2023-03-17T13:33:42;15.30;41.80
18365;DHT22;9309;52.126;11.616;2023-03-17T13:36:30;15.10;40.90
18365;DHT22;9309;52.126;11.616;2023-03-17T13:39:10;15.00;40.90
18365;DHT22;9309;52.126;11.616;2023-03-17T13:42:01;15.00;41.70
18365;DHT22;9309;52.126;11.616;2023-03-17T13:44:50;15.00;40.20
18365;DHT22;9309;52.126;11.616;2023-03-17T13:47:27;15.00;39.20
18365;DHT22;9309;52.126;11.616;2023-03-17T13:50:01;15.10;39.80
18365;DHT22;9309;52.126;11.616;2023-03-17T13:52:31;15.10;39.40
18365;DHT22;9309;52.126;11.616;2023-03-17T13:55:03;15.10;38.70
18365;DHT22;9309;52.126;11.616;2023-03-17T13:57:54;15.00;39.40
18365;DHT22;9309;52.126;11.616;2023-03-17T14:00:24;14.90;38.70
18365;DHT22;9309;52.126;11.616;2023-03-17T14:02:59;14.80;39.40
18365;DHT22;9309;52.126;11.616;2023-03-17T14:05:29;14.90;39.30
18365;DHT22;9309;52.126;11.616;2023-03-17T14:07:59;14.90;39.10
18365;DHT22;9309;52.126;11.616;2023-03-17T14:10:29;15.00;38.70
18365;DHT22;9309;52.126;11.616;2023-03-17T14:13:00;14.90;38.70
18365;DHT22;9309;52.126;11.616;2023-03-17T14:15:32;14.90;39.30
18365;DHT22;9309;52.126;11.616;2023-03-17T14:18:11;15.00;39.40
18365;DHT22;9309;52.126;11.616;2023-03-17T14:20:51;15.20;40.10
18365;DHT22;9309;52.126;11.616;2023-03-17T14:23:17;15.20;39.90
18365;DHT22;9309;52.126;11.616;2023-03-17T14:25:45;15.00;40.20
18365;DHT22;9309;52.126;11.616;2023-03-17T14:28:16;14.80;40.10
18365;DHT22;9309;52.126;11.616;2023-03-17T14:30:50;14.70;40.50
18365;DHT22;9309;52.126;11.616;2023-03-17T14:33:21;14.60;40.80
18365;DHT22;9309;52.126;11.616;2023-03-17T14:35:51;14.60;41.30
18365;DHT22;9309;52.126;11.616;2023-03-17T14:38:20;14.50;40.70
18365;DHT22;9309;52.126;11.616;2023-03-17T14:40:49;14.40;41.40
18365;DHT22;9309;52.126;11.616;2023-03-17T14:43:16;14.40;41.10
18365;DHT22;9309;52.126;11.616;2023-03-17T14:45:48;14.50;41.20
18365;DHT22;9309;52.126;11.616;2023-03-17T14:48:18;14.60;41.30
18365;DHT22;9309;52.126;11.616;2023-03-17T14:50:50;14.60;41.80
18365;DHT22;9309;52.126;11.616;2023-03-17T14:53:19;14.70;41.40
18365;DHT22;9309;52.126;11.616;2023-03-17T14:55:50;14.60;41.90
18365;DHT22;9309;52.126;11.616;2023-03-17T14:58:21;14.50;41.90
18365;DHT22;9309;52.126;11.616;2023-03-17T15:00:54;14.30;42.20
18365;DHT22;9309;52.126;11.616;2023-03-17T15:03:24;14.30;42.80
18365;DHT22;9309;52.126;11.616;2023-03-17T15:06:03;14.20;42.90
18365;DHT22;9309;52.126;11.616;2023-03-17T15:08:41;14.30;42.50
18365;DHT22;9309;52.126;11.616;2023-03-17T15:11:26;14.30;43.20
18365;DHT22;9309;52.126;11.616;2023-03-17T15:13:55;14.40;42.80
18365;DHT22;9309;52.126;11.616;2023-03-17T15:16:32;14.50;42.40
18365;DHT22;9309;52.126;11.616;2023-03-17T15:19:04;14.50;42.30
18365;DHT22;9309;52.126;11.616;2023-03-17T15:21:34;14.50;42.00
18365;DHT22;9309;52.126;11.616;2023-03-17T15:24:04;14.40;42.40
18365;DHT22;9309;52.126;11.616;2023-03-17T15:26:36;14.40;42.60
18365;DHT22;9309;52.126;11.616;2023-03-17T15:29:02;14.40;42.20
18365;DHT22;9309;52.126;11.616;2023-03-17T15:31:29;14.30;42.70
18365;DHT22;9309;52.126;11.616;2023-03-17T15:33:56;14.30;42.90
18365;DHT22;9309;52.126;11.616;2023-03-17T15:36:23;14.30;42.30
18365;DHT22;9309;52.126;11.616;2023-03-17T15:38:50;14.30;42.60
18365;DHT22;9309;52.126;11.616;2023-03-17T15:41:18;14.30;41.90
18365;DHT22;9309;52.126;11.616;2023-03-17T15:43:46;14.20;41.90
18365;DHT22;9309;52.126;11.616;2023-03-17T15:46:21;14.10;42.10
18365;DHT22;9309;52.126;11.616;2023-03-17T15:48:48;14.20;42.80
18365;DHT22;9309;52.126;11.616;2023-03-17T15:51:15;14.20;42.30
18365;DHT22;9309;52.126;11.616;2023-03-17T15:53:43;14.10;42.10
18365;DHT22;9309;52.126;11.616;2023-03-17T15:56:16;14.20;43.00
18365;DHT22;9309;52.126;11.616;2023-03-17T15:58:45;14.00;42.60
18365;DHT22;9309;52.126;11.616;2023-03-17T16:01:14;14.10;41.50
18365;DHT22;9309;52.126;11.616;2023-03-17T16:03:41;14.00;41.90